createdAt,value
2023-01-30T00:01:29.576Z,14.10
2023-01-30T00:03:56.935Z,13.53
2023-01-30T00:06:25.115Z,14.07
2023-01-30T00:08:54.446Z,13.87
2023-01-30T00:11:22.308Z,12.93
2023-01-30T00:13:50.825Z,14.00
2023-01-30T00:16:21.027Z,13.17
2023-01-30T00:18:48.345Z,12.70
2023-01-30T00:21:16.149Z,13.57
2023-01-30T00:23:43.750Z,13.63
2023-01-30T00:26:11.277Z,13.93
2023-01-30T00:28:39.781Z,13.03
2023-01-30T00:31:07.677Z,14.40
2023-01-30T00:33:37.416Z,13.17
2023-01-30T00:36:04.987Z,13.33
2023-01-30T00:38:32.033Z,13.97
2023-01-30T00:41:01.375Z,13.60
2023-01-30T00:43:48.189Z,12.40
2023-01-30T00:46:48.410Z,14.07
2023-01-30T00:49:15.715Z,13.00
2023-01-30T00:51:42.897Z,11.90
2023-01-30T00:54:10.021Z,13.50
2023-01-30T00:56:36.981Z,12.77
2023-01-30T00:59:04.009Z,12.83
2023-01-30T01:01:30.962Z,13.47
2023-01-30T01:03:57.899Z,13.67
2023-01-30T01:06:26.048Z,13.77
2023-01-30T01:08:53.096Z,13.27
2023-01-30T01:11:26.244Z,13.27
2023-01-30T01:13:58.728Z,13.17
2023-01-30T01:16:26.961Z,14.50
2023-01-30T01:18:54.788Z,13.67
2023-01-30T01:21:22.947Z,12.60
2023-01-30T01:23:52.133Z,13.80
2023-01-30T01:26:19.680Z,14.10
2023-01-30T01:28:46.951Z,14.77
2023-01-30T01:31:16.469Z,14.00
2023-01-30T01:33:43.532Z,13.70
2023-01-30T01:36:10.795Z,14.23
2023-01-30T01:38:39.113Z,13.60
2023-01-30T01:41:10.191Z,15.20
2023-01-30T01:43:58.349Z,13.37
2023-01-30T01:46:30.600Z,12.90
2023-01-30T01:49:00.577Z,14.57
2023-01-30T01:52:09.910Z,13.53
2023-01-30T01:54:48.150Z,15.67
2023-01-30T01:57:22.966Z,13.70
2023-01-30T02:00:18.058Z,14.97
2023-01-30T02:02:52.072Z,14.67
2023-01-30T02:05:20.741Z,15.10
2023-01-30T02:08:16.171Z,14.13
2023-01-30T02:11:11.479Z,14.27
2023-01-30T02:13:38.843Z,13.50
2023-01-30T02:16:08.005Z,14.27
2023-01-30T02:18:37.301Z,14.23
2023-01-30T02:21:20.385Z,15.23
2023-01-30T02:24:10.039Z,14.13
2023-01-30T02:27:04.296Z,14.33
2023-01-30T02:29:52.488Z,13.33
2023-01-30T02:32:37.019Z,13.27
2023-01-30T02:35:24.829Z,13.20
2023-01-30T02:37:57.643Z,14.47
2023-01-30T02:40:57.527Z,13.80
2023-01-30T02:44:03.676Z,13.47
2023-01-30T02:46:43.790Z,13.00
2023-01-30T02:49:17.619Z,14.10
2023-01-30T02:51:46.327Z,13.20
2023-01-30T02:54:21.411Z,13.97
2023-01-30T02:56:53.773Z,13.20
2023-01-30T02:59:41.480Z,12.70
2023-01-30T03:02:14.531Z,14.23
2023-01-30T03:04:50.545Z,12.93
2023-01-30T03:07:27.369Z,13.87
2023-01-30T03:09:57.424Z,14.30
2023-01-30T03:12:30.551Z,14.60
2023-01-30T03:15:05.491Z,26.00
2023-01-30T03:17:34.311Z,18.63
2023-01-30T03:20:01.587Z,14.67
2023-01-30T03:22:28.644Z,13.97
2023-01-30T03:25:23.496Z,13.93
2023-01-30T03:27:53.571Z,14.20
2023-01-30T03:30:21.184Z,13.40
2023-01-30T03:32:52.220Z,14.10
2023-01-30T03:35:19.487Z,12.40
2023-01-30T03:37:47.235Z,14.27
2023-01-30T03:40:16.063Z,13.07
2023-01-30T03:42:43.387Z,13.13
2023-01-30T03:45:11.617Z,14.03
2023-01-30T03:47:40.155Z,14.00
2023-01-30T03:50:07.529Z,13.57
2023-01-30T03:52:37.864Z,13.27
2023-01-30T03:55:14.093Z,12.73
2023-01-30T03:57:41.017Z,14.83
2023-01-30T04:00:08.819Z,13.43
2023-01-30T04:02:38.868Z,12.57
2023-01-30T04:05:06.827Z,13.73
2023-01-30T04:07:34.800Z,15.17
2023-01-30T04:10:01.757Z,13.23
2023-01-30T04:12:28.791Z,14.20
2023-01-30T04:14:55.726Z,13.80
2023-01-30T04:17:22.631Z,14.33
2023-01-30T04:19:49.572Z,12.80
2023-01-30T04:22:16.515Z,12.57
2023-01-30T04:24:45.539Z,13.13
2023-01-30T04:27:12.448Z,13.43
2023-01-30T04:29:39.383Z,13.83
2023-01-30T04:32:06.328Z,13.87
2023-01-30T04:34:33.340Z,12.73
2023-01-30T04:37:00.332Z,12.70
2023-01-30T04:39:27.268Z,13.37
2023-01-30T04:41:54.302Z,11.50
2023-01-30T04:44:21.315Z,13.63
2023-01-30T04:46:48.309Z,12.77
2023-01-30T04:49:15.276Z,12.27
2023-01-30T04:51:43.680Z,12.03
2023-01-30T04:54:10.750Z,13.27
2023-01-30T04:56:37.790Z,12.60
2023-01-30T04:59:04.874Z,11.50
2023-01-30T05:01:34.943Z,11.63
2023-01-30T05:04:02.272Z,11.60
2023-01-30T05:06:30.479Z,11.73
2023-01-30T05:08:58.003Z,12.53
2023-01-30T05:11:26.374Z,12.30
2023-01-30T05:13:53.756Z,11.73
2023-01-30T05:16:22.628Z,12.90
2023-01-30T05:18:50.002Z,12.27
2023-01-30T05:21:23.210Z,12.70
2023-01-30T05:23:52.799Z,12.67
2023-01-30T05:26:20.084Z,12.83
2023-01-30T05:28:53.120Z,11.73
2023-01-30T05:31:22.672Z,12.07
2023-01-30T05:33:52.689Z,11.80
2023-01-30T05:36:21.773Z,11.63
2023-01-30T05:38:48.982Z,12.37
2023-01-30T05:41:19.537Z,11.90
2023-01-30T05:43:50.488Z,11.03
2023-01-30T05:46:18.014Z,11.17
2023-01-30T05:48:45.208Z,11.83
2023-01-30T05:51:18.192Z,11.83
2023-01-30T05:53:45.282Z,11.63
2023-01-30T05:56:13.384Z,12.63
2023-01-30T05:58:40.624Z,11.20
2023-01-30T06:01:09.957Z,11.17
2023-01-30T06:03:37.787Z,10.47
2023-01-30T06:06:06.329Z,10.90
2023-01-30T06:08:33.796Z,10.97
2023-01-30T06:11:10.977Z,12.10
2023-01-30T06:13:38.807Z,10.77
2023-01-30T06:16:08.578Z,11.23
2023-01-30T06:18:36.363Z,10.63
2023-01-30T06:21:05.974Z,10.03
2023-01-30T06:23:33.079Z,10.43
2023-01-30T06:26:03.698Z,11.03
2023-01-30T06:28:34.183Z,10.47
2023-01-30T06:31:01.282Z,10.20
2023-01-30T06:33:28.296Z,11.27
2023-01-30T06:35:55.505Z,10.30
2023-01-30T06:38:22.447Z,10.83
2023-01-30T06:40:50.333Z,12.27
2023-01-30T06:43:17.487Z,10.03
2023-01-30T06:45:44.441Z,11.60
2023-01-30T06:48:11.621Z,9.63
2023-01-30T06:50:38.751Z,10.63
2023-01-30T06:53:07.559Z,9.93
2023-01-30T06:55:35.901Z,10.90
2023-01-30T06:58:12.067Z,10.30
2023-01-30T07:00:40.927Z,10.30
2023-01-30T07:03:15.484Z,10.03
2023-01-30T07:05:43.872Z,10.10
2023-01-30T07:08:11.029Z,10.07
2023-01-30T07:10:38.656Z,10.93
2023-01-30T07:13:05.647Z,11.17
2023-01-30T07:15:33.290Z,11.00
2023-01-30T07:18:00.606Z,10.23
2023-01-30T07:20:27.656Z,10.40
2023-01-30T07:22:55.877Z,11.03
2023-01-30T07:25:25.137Z,11.00
2023-01-30T07:28:00.544Z,10.67
2023-01-30T07:30:29.078Z,9.77
2023-01-30T07:32:58.558Z,10.43
2023-01-30T07:35:28.794Z,11.00
2023-01-30T07:37:56.117Z,11.33
2023-01-30T07:40:23.549Z,11.10
2023-01-30T07:43:08.594Z,10.20
2023-01-30T07:45:44.945Z,10.00
2023-01-30T07:48:14.119Z,10.33
2023-01-30T07:50:41.444Z,10.43
2023-01-30T07:53:10.954Z,10.17
2023-01-30T07:55:38.587Z,10.40
2023-01-30T07:58:05.780Z,10.50
2023-01-30T08:00:34.419Z,9.70
2023-01-30T08:03:01.697Z,9.90
2023-01-30T08:05:28.642Z,9.90
2023-01-30T08:07:56.973Z,9.00
2023-01-30T08:10:24.370Z,9.50
2023-01-30T08:12:51.847Z,9.87
2023-01-30T08:15:20.593Z,9.43
2023-01-30T08:17:56.977Z,10.37
2023-01-30T08:20:25.303Z,10.20
2023-01-30T08:22:53.119Z,9.47
2023-01-30T08:25:20.414Z,7.97
2023-01-30T08:27:47.409Z,9.97
2023-01-30T08:30:14.745Z,9.37
2023-01-30T08:32:41.704Z,9.10
2023-01-30T08:35:09.590Z,9.00
2023-01-30T08:37:40.302Z,9.40
2023-01-30T08:40:08.744Z,9.17
2023-01-30T08:42:36.182Z,9.47
2023-01-30T08:45:03.672Z,9.83
2023-01-30T08:47:32.762Z,9.03
2023-01-30T08:49:59.838Z,7.93
2023-01-30T08:52:26.917Z,8.20
2023-01-30T08:54:53.835Z,8.03
2023-01-30T08:57:24.553Z,8.37
2023-01-30T08:59:54.263Z,6.63
2023-01-30T09:02:21.279Z,7.73
2023-01-30T09:04:48.802Z,6.93
2023-01-30T09:07:15.772Z,7.23
2023-01-30T09:09:42.736Z,7.37
2023-01-30T09:12:11.881Z,6.97
2023-01-30T09:14:38.818Z,7.23
2023-01-30T09:17:05.871Z,7.03
2023-01-30T09:19:32.898Z,6.80
2023-01-30T09:21:59.860Z,7.63
2023-01-30T09:24:28.611Z,7.50
2023-01-30T09:26:59.031Z,6.53
2023-01-30T09:29:27.266Z,6.73
2023-01-30T09:31:56.679Z,7.07
2023-01-30T09:34:28.656Z,5.97
2023-01-30T09:37:05.100Z,7.47
2023-01-30T09:39:42.037Z,6.40
2023-01-30T09:42:32.116Z,7.47
2023-01-30T09:45:15.215Z,6.20
2023-01-30T09:48:03.516Z,6.43
2023-01-30T09:51:05.910Z,6.93
2023-01-30T09:53:58.138Z,6.60
2023-01-30T09:56:26.870Z,6.50
2023-01-30T09:59:03.413Z,6.40
2023-01-30T10:01:47.058Z,5.43
2023-01-30T10:04:38.107Z,7.20
2023-01-30T10:07:25.697Z,5.83
2023-01-30T10:10:12.602Z,6.13
2023-01-30T10:13:24.336Z,5.27
2023-01-30T10:16:00.276Z,5.77
2023-01-30T10:18:47.632Z,5.77
2023-01-30T10:21:17.696Z,6.20
2023-01-30T10:24:29.630Z,5.90
2023-01-30T10:26:59.047Z,5.87
2023-01-30T10:29:49.614Z,5.17
2023-01-30T10:32:26.245Z,6.03
2023-01-30T10:34:58.215Z,5.63
2023-01-30T10:37:33.939Z,5.00
2023-01-30T10:40:25.432Z,4.80
2023-01-30T10:43:11.269Z,5.03
2023-01-30T10:46:06.960Z,4.83
2023-01-30T10:48:52.000Z,4.70
2023-01-30T10:51:31.134Z,4.90
2023-01-30T10:54:19.958Z,3.90
2023-01-30T10:57:19.481Z,4.80
2023-01-30T10:59:59.684Z,5.10
2023-01-30T11:02:41.614Z,4.67
2023-01-30T11:05:40.873Z,4.30
2023-01-30T11:08:28.122Z,4.83
2023-01-30T11:10:56.586Z,4.90
2023-01-30T11:13:31.542Z,4.90
2023-01-30T11:16:10.259Z,4.17
2023-01-30T11:21:44.100Z,5.30
2023-01-30T11:24:44.983Z,6.17
2023-01-30T11:27:25.533Z,5.80
2023-01-30T11:30:07.562Z,6.57
2023-01-30T11:32:34.993Z,5.73
2023-01-30T11:35:08.402Z,6.27
2023-01-30T11:37:41.324Z,6.20
2023-01-30T11:40:17.633Z,6.33
2023-01-30T11:42:47.520Z,5.60
2023-01-30T11:45:18.022Z,5.40
2023-01-30T11:48:04.613Z,5.13
2023-01-30T11:50:46.591Z,5.67
2023-01-30T11:53:30.159Z,5.37
2023-01-30T11:56:12.240Z,5.60
2023-01-30T11:58:41.371Z,5.13
2023-01-30T12:01:11.314Z,5.10
2023-01-30T12:03:54.949Z,4.80
2023-01-30T12:06:24.318Z,5.20
2023-01-30T12:08:55.189Z,6.33
2023-01-30T12:11:25.236Z,5.60
2023-01-30T12:13:55.355Z,4.97
2023-01-30T12:16:50.300Z,4.90
2023-01-30T12:19:19.967Z,5.10
2023-01-30T12:21:59.503Z,6.13
2023-01-30T12:24:34.393Z,5.50
2023-01-30T12:27:20.176Z,4.60
2023-01-30T12:30:26.764Z,4.93
2023-01-30T12:35:58.507Z,4.80
2023-01-30T12:38:38.412Z,5.77
2023-01-30T12:41:21.238Z,5.13
2023-01-30T12:44:08.420Z,5.57
2023-01-30T12:46:50.972Z,5.10
2023-01-30T12:49:37.699Z,4.60
2023-01-30T12:52:27.368Z,4.70
2023-01-30T12:55:08.203Z,4.83
2023-01-30T12:57:44.673Z,5.03
2023-01-30T13:00:45.666Z,4.57
2023-01-30T13:03:45.321Z,5.10
2023-01-30T13:07:02.673Z,4.53
2023-01-30T13:09:38.514Z,4.97
2023-01-30T13:12:36.731Z,4.60
2023-01-30T13:15:27.697Z,5.30
2023-01-30T13:18:09.749Z,5.10
2023-01-30T13:20:54.738Z,5.67
2023-01-30T13:23:27.549Z,4.77
2023-01-30T13:26:10.188Z,4.90
2023-01-30T13:28:49.368Z,5.13
2023-01-30T13:31:21.975Z,5.00
2023-01-30T13:33:53.669Z,4.90
2023-01-30T13:36:37.922Z,5.20
2023-01-30T13:41:50.243Z,5.03
2023-01-30T13:44:25.897Z,5.60
2023-01-30T13:46:56.273Z,5.87
2023-01-30T13:49:40.434Z,5.77
2023-01-30T13:52:21.317Z,5.70
2023-01-30T13:55:24.780Z,4.67
2023-01-30T13:58:35.144Z,6.23
2023-01-30T14:01:03.040Z,5.40
2023-01-30T14:03:34.231Z,4.50
2023-01-30T14:06:06.990Z,4.50
2023-01-30T14:08:40.148Z,4.67
2023-01-30T14:11:31.851Z,5.60
2023-01-30T14:14:18.979Z,4.83
2023-01-30T14:16:55.279Z,3.90
2023-01-30T14:19:44.931Z,4.00
2023-01-30T14:22:50.735Z,3.77
2023-01-30T14:25:33.796Z,4.13
2023-01-30T14:28:04.501Z,4.10
2023-01-30T14:30:31.637Z,4.40
2023-01-30T14:33:02.022Z,4.23
2023-01-30T14:35:33.238Z,4.70
2023-01-30T14:38:22.407Z,4.27
2023-01-30T14:40:58.499Z,4.53
2023-01-30T14:43:38.953Z,4.40
2023-01-30T14:46:17.944Z,5.13
2023-01-30T14:48:50.037Z,5.87
2023-01-30T14:51:35.083Z,5.00
2023-01-30T14:54:14.765Z,5.17
2023-01-30T14:57:01.622Z,5.43
2023-01-30T15:00:17.140Z,4.87
2023-01-30T15:02:53.110Z,5.27
2023-01-30T15:05:29.403Z,5.70
2023-01-30T15:08:21.034Z,5.63
2023-01-30T15:11:19.535Z,5.10
2023-01-30T15:14:03.165Z,5.70
2023-01-30T15:16:43.045Z,4.67
2023-01-30T15:19:21.568Z,5.17
2023-01-30T15:22:26.414Z,4.70
2023-01-30T15:25:20.708Z,5.37
2023-01-30T15:28:09.257Z,5.80
2023-01-30T15:30:58.633Z,5.37
2023-01-30T15:33:32.472Z,5.00
2023-01-30T15:36:01.369Z,5.40
2023-01-30T15:38:32.272Z,5.53
2023-01-30T15:41:06.182Z,5.90
2023-01-30T15:43:36.914Z,5.33
2023-01-30T15:46:28.917Z,5.27
2023-01-30T15:49:22.364Z,4.80
2023-01-30T15:51:49.446Z,5.03
2023-01-30T15:54:19.869Z,5.60
2023-01-30T15:56:49.936Z,5.77
2023-01-30T15:59:36.054Z,6.00
2023-01-30T16:02:13.243Z,5.73
2023-01-30T16:04:45.285Z,5.40
2023-01-30T16:07:17.756Z,5.23
2023-01-30T16:10:12.900Z,5.37
2023-01-30T16:12:41.470Z,5.17
2023-01-30T16:15:39.215Z,5.37
2023-01-30T16:18:32.222Z,4.67
2023-01-30T16:24:12.465Z,5.27
2023-01-30T16:26:46.082Z,5.53
2023-01-30T16:29:21.184Z,5.43
2023-01-30T16:31:50.982Z,5.33
2023-01-30T16:34:32.433Z,5.53
2023-01-30T16:37:21.925Z,5.53
2023-01-30T16:40:14.124Z,5.00
2023-01-30T16:42:42.274Z,4.63
2023-01-30T16:45:12.413Z,5.23
2023-01-30T16:47:41.030Z,5.17
2023-01-30T16:50:23.226Z,5.70
2023-01-30T16:52:55.723Z,5.40
2023-01-30T16:55:28.763Z,5.80
2023-01-30T16:58:03.192Z,5.67
2023-01-30T17:00:38.852Z,5.80
2023-01-30T17:03:20.103Z,6.60
2023-01-30T17:05:49.496Z,5.40
2023-01-30T17:08:47.565Z,5.07
2023-01-30T17:11:40.965Z,5.63
2023-01-30T17:14:10.810Z,5.10
2023-01-30T17:16:39.325Z,5.60
2023-01-30T17:19:06.394Z,5.87
2023-01-30T17:21:58.885Z,5.90
2023-01-30T17:24:26.468Z,6.13
2023-01-30T17:27:04.693Z,5.23
2023-01-30T17:29:48.936Z,6.17
2023-01-30T17:32:16.540Z,6.03
2023-01-30T17:34:43.721Z,6.43
2023-01-30T17:37:22.485Z,5.97
2023-01-30T17:39:49.642Z,6.57
2023-01-30T17:42:22.360Z,5.63
2023-01-30T17:44:49.711Z,6.30
2023-01-30T17:47:16.688Z,7.18
2023-01-30T17:49:43.829Z,6.47
2023-01-30T17:52:13.674Z,7.93
2023-01-30T17:54:40.732Z,6.63
2023-01-30T17:57:10.637Z,6.33
2023-01-30T17:59:37.680Z,6.10
2023-01-30T18:02:05.264Z,6.07
2023-01-30T18:04:32.336Z,6.53
2023-01-30T18:07:04.853Z,6.23
2023-01-30T18:09:32.191Z,6.37
2023-01-30T18:11:59.269Z,6.80
2023-01-30T18:14:26.270Z,6.10
2023-01-30T18:16:59.171Z,6.60
2023-01-30T18:19:28.316Z,7.10
2023-01-30T18:21:56.811Z,6.00
2023-01-30T18:24:24.229Z,6.50
2023-01-30T18:26:51.478Z,6.40
2023-01-30T18:29:19.218Z,6.13
2023-01-30T18:31:47.956Z,6.23
2023-01-30T18:34:15.788Z,7.13
2023-01-30T18:36:45.509Z,6.40
2023-01-30T18:39:13.537Z,6.67
2023-01-30T18:41:43.894Z,7.33
2023-01-30T18:44:14.456Z,6.60
2023-01-30T18:46:41.764Z,7.43
2023-01-30T18:49:09.334Z,6.83
2023-01-30T18:51:36.468Z,7.40
2023-01-30T18:54:04.431Z,6.67
2023-01-30T18:56:33.394Z,6.37
2023-01-30T18:59:04.249Z,6.90
2023-01-30T19:01:35.061Z,6.97
2023-01-30T19:04:04.287Z,7.00
2023-01-30T19:06:32.336Z,8.33
2023-01-30T19:09:00.380Z,7.27
2023-01-30T19:11:46.624Z,7.60
2023-01-30T19:14:14.935Z,7.43
2023-01-30T19:16:42.621Z,7.30
2023-01-30T19:19:11.003Z,7.43
2023-01-30T19:21:38.603Z,7.53
2023-01-30T19:24:08.554Z,6.70
2023-01-30T19:26:35.931Z,7.33
2023-01-30T19:29:03.794Z,7.20
2023-01-30T19:31:31.152Z,6.83
2023-01-30T19:34:04.981Z,7.30
2023-01-30T19:36:33.546Z,7.53
2023-01-30T19:39:03.750Z,7.07
2023-01-30T19:41:34.461Z,7.30
2023-01-30T19:44:07.034Z,7.43
2023-01-30T19:46:37.416Z,7.17
2023-01-30T19:49:07.493Z,7.77
2023-01-30T19:51:35.551Z,7.43
2023-01-30T19:54:07.805Z,7.63
2023-01-30T19:56:37.143Z,8.73
2023-01-30T19:59:04.470Z,7.73
2023-01-30T20:01:37.037Z,8.37
2023-01-30T20:04:06.297Z,7.03
2023-01-30T20:06:40.043Z,8.43
2023-01-30T20:09:11.789Z,7.83
2023-01-30T20:11:42.264Z,7.90
2023-01-30T20:14:10.924Z,8.10
2023-01-30T20:16:38.698Z,8.03
2023-01-30T20:19:08.989Z,7.70
2023-01-30T20:21:36.965Z,8.80
2023-01-30T20:24:05.530Z,8.00
2023-01-30T20:26:36.664Z,8.53
2023-01-30T20:29:05.955Z,8.93
2023-01-30T20:31:35.360Z,7.87
2023-01-30T20:34:04.443Z,8.00
2023-01-30T20:36:32.295Z,8.33
2023-01-30T20:39:04.560Z,8.40
2023-01-30T20:41:37.414Z,8.70
2023-01-30T20:44:06.985Z,8.67
2023-01-30T20:46:42.996Z,8.80
2023-01-30T20:49:21.821Z,8.20
2023-01-30T20:51:52.193Z,8.60
2023-01-30T20:54:22.938Z,8.23
2023-01-30T20:56:53.613Z,8.83
2023-01-30T20:59:24.722Z,8.17
2023-01-30T21:01:53.838Z,7.60
2023-01-30T21:04:22.573Z,8.23
2023-01-30T21:06:49.844Z,7.93
2023-01-30T21:09:19.842Z,8.77
2023-01-30T21:11:48.307Z,8.87
2023-01-30T21:14:16.615Z,8.47
2023-01-30T21:16:44.492Z,9.50
2023-01-30T21:19:15.260Z,8.67
2023-01-30T21:21:51.191Z,9.03
2023-01-30T21:24:21.547Z,9.37
2023-01-30T21:26:48.846Z,8.77
2023-01-30T21:29:20.392Z,8.63
2023-01-30T21:31:47.524Z,8.97
2023-01-30T21:34:14.744Z,9.47
2023-01-30T21:36:42.394Z,9.07
2023-01-30T21:39:32.438Z,8.07
2023-01-30T21:42:18.916Z,9.63
2023-01-30T21:44:47.044Z,9.30
2023-01-30T21:47:14.154Z,8.37
2023-01-30T21:49:44.141Z,7.83
2023-01-30T21:52:11.270Z,9.53
2023-01-30T21:54:38.965Z,8.93
2023-01-30T21:57:06.156Z,9.37
2023-01-30T21:59:33.469Z,9.13
2023-01-30T22:02:00.669Z,8.37
2023-01-30T22:04:27.768Z,8.60
2023-01-30T22:06:55.963Z,8.03
2023-01-30T22:09:22.903Z,7.90
2023-01-30T22:11:49.953Z,7.87
2023-01-30T22:14:17.026Z,8.53
2023-01-30T22:16:43.971Z,9.17
2023-01-30T22:19:11.718Z,8.10
2023-01-30T22:21:40.383Z,8.10
2023-01-30T22:24:09.401Z,8.23
2023-01-30T22:26:36.798Z,8.57
2023-01-30T22:29:05.394Z,8.30
2023-01-30T22:31:35.160Z,9.47
2023-01-30T22:34:04.842Z,9.20
2023-01-30T22:36:36.014Z,8.03
2023-01-30T22:39:04.452Z,9.37
2023-01-30T22:41:37.188Z,8.43
2023-01-30T22:44:05.885Z,7.77
2023-01-30T22:46:36.483Z,8.20
2023-01-30T22:49:05.884Z,7.60
2023-01-30T22:51:41.005Z,7.47
2023-01-30T22:54:11.375Z,7.30
2023-01-30T22:56:41.498Z,7.53
2023-01-30T22:59:09.382Z,7.43
2023-01-30T23:01:39.539Z,7.63
2023-01-30T23:04:17.238Z,7.43
2023-01-30T23:06:44.759Z,7.03
2023-01-30T23:09:18.734Z,8.23
2023-01-30T23:12:07.445Z,8.00
2023-01-30T23:14:34.694Z,7.37
2023-01-30T23:17:21.819Z,7.83
2023-01-30T23:19:48.812Z,7.80
2023-01-30T23:22:15.829Z,7.03
2023-01-30T23:24:43.301Z,7.77
2023-01-30T23:27:10.483Z,6.80
2023-01-30T23:29:37.974Z,7.17
2023-01-30T23:32:05.283Z,6.93
2023-01-30T23:34:32.339Z,7.07
2023-01-30T23:36:59.362Z,8.00
2023-01-30T23:39:26.384Z,7.63
2023-01-30T23:41:53.341Z,7.83
2023-01-30T23:44:20.508Z,7.33
2023-01-30T23:46:47.485Z,8.17
2023-01-30T23:49:15.248Z,8.40
2023-01-30T23:51:44.237Z,7.80
2023-01-30T23:54:13.582Z,6.97
2023-01-30T23:56:43.057Z,7.80
2023-01-30T23:59:11.352Z,7.93
